Time;durP1;ratioP1;P1;durP2;ratioP2;P2;SDS_P1;SDS_P2;PMS_P1;PMS_P2;Temp;Humidity;BMP_temperature;BMP_pressure;BME280_temperature;BME280_humidity;BME280_pressure;Samples;Min_cycle;Max_cycle;Signal;HPM_P1;HPM_P2
2023/07/15 00:01:05;;;;;;;6.72;5.40;;;19.10;99.90;;;;;;6155444;23;20017;-81
2023/07/15 00:03:31;;;;;;;8.18;5.30;;;19.10;99.90;;;;;;6154529;23;20108;-82
2023/07/15 00:05:57;;;;;;;6.50;5.57;;;19.10;99.90;;;;;;6154315;23;20029;-82
2023/07/15 00:08:23;;;;;;;7.38;5.20;;;19.10;99.90;;;;;;6153841;23;20009;-81
2023/07/15 00:10:48;;;;;;;6.45;4.75;;;19.00;99.90;;;;;;6154103;23;20017;-81
2023/07/15 00:13:16;;;;;;;6.97;5.38;;;19.00;99.90;;;;;;6128970;23;20041;-82
2023/07/15 00:15:44;;;;;;;6.47;5.07;;;19.00;99.90;;;;;;6129512;23;20010;-82
2023/07/15 00:18:11;;;;;;;7.28;5.10;;;19.00;99.90;;;;;;6129810;23;20044;-81
2023/07/15 00:20:37;;;;;;;5.75;4.93;;;19.00;99.90;;;;;;6153475;23;20014;-81
2023/07/15 00:23:13;;;;;;;6.85;4.97;;;19.10;99.90;;;;;;6129642;23;20072;-82
2023/07/15 00:25:39;;;;;;;7.82;5.40;;;18.90;99.90;;;;;;6129745;23;20036;-81
2023/07/15 00:28:05;;;;;;;7.07;5.05;;;19.00;99.90;;;;;;6153063;23;20426;-81
2023/07/15 00:30:31;;;;;;;6.95;4.95;;;18.90;99.90;;;;;;6129156;23;20025;-82
2023/07/15 00:32:57;;;;;;;9.38;4.90;;;18.90;99.90;;;;;;6129467;23;20020;-82
2023/07/15 00:35:28;;;;;;;7.65;4.93;;;18.90;99.90;;;;;;6130012;23;20005;-81
2023/07/15 00:38:03;;;;;;;6.55;4.80;;;18.90;99.90;;;;;;6129437;23;20009;-81
2023/07/15 00:40:36;;;;;;;6.05;5.10;;;18.90;99.90;;;;;;6153671;23;20505;-81
2023/07/15 00:43:39;;;;;;;6.13;4.32;;;18.90;99.90;;;;;;6128685;23;20040;-81
2023/07/15 00:46:17;;;;;;;6.18;4.28;;;18.90;99.90;;;;;;6153876;23;20013;-82
2023/07/15 00:49:03;;;;;;;5.55;4.43;;;19.00;99.90;;;;;;6153526;23;20517;-82
2023/07/15 00:51:36;;;;;;;6.32;4.22;;;19.00;99.90;;;;;;6154055;23;20013;-81
2023/07/15 01:02:10;;;;;;;;;;;;;;;;;;;;;
2023/07/15 01:05:22;;;;;;;;;;;;;;;;;;;;;
2023/07/15 01:08:13;;;;;;;5.72;3.72;;;19.20;99.90;;;;;;6122161;23;20093;-81
2023/07/15 01:11:33;;;;;;;;;;;;;;;;;;;;;
2023/07/15 01:15:14;;;;;;;5.15;3.53;;;19.30;99.90;;;;;;6112610;23;20466;-81
2023/07/15 01:19:00;;;;;;;;;;;;;;;;;;;;;
2023/07/15 01:23:00;;;;;;;;;;;;;;;;;;;;;
2023/07/15 01:41:44;;;;;;;;;;;;;;;;;;;;;
2023/07/15 01:48:59;;;;;;;;;;;;;;;;;;;;;
2023/07/15 01:56:01;;;;;;;;;;;;;;;;;;;;;
2023/07/15 02:18:29;;;;;;;;;;;;;;;;;;;;;
2023/07/15 02:26:21;;;;;;;6.18;3.22;;;19.30;99.90;;;;;;5981913;24;20056;-81
2023/07/15 02:33:44;;;;;;;5.60;3.40;;;19.30;99.90;;;;;;5844721;24;20029;-81
2023/07/15 02:52:02;;;;;;;6.57;3.53;;;18.90;99.90;;;;;;5952907;24;20112;-81
2023/07/15 03:10:19;;;;;;;4.43;3.00;;;18.60;99.90;;;;;;5815758;24;20034;-81
2023/07/15 03:17:53;;;;;;;;;;;;;;;;;;;;;
2023/07/15 03:25:20;;;;;;;;;;;;;;;;;;;;;
2023/07/15 03:32:56;;;;;;;7.03;3.10;;;18.50;99.90;;;;;;5817891;24;20026;-82
2023/07/15 03:43:54;;;;;;;6.50;2.90;;;18.60;99.90;;;;;;5979879;23;20026;-82
2023/07/15 04:12:40;;;;;;;;;;;;;;;;;;;;;
2023/07/15 04:20:20;;;;;;;;;;;;;;;;;;;;;
2023/07/15 04:23:54;;;;;;;4.50;3.33;;;18.20;99.90;;;;;;5978787;23;20362;-81
2023/07/15 04:27:22;;;;;;;5.10;3.50;;;18.20;99.90;;;;;;5855993;24;20029;-82
2023/07/15 04:31:16;;;;;;;;;;;;;;;;;;;;;
2023/07/15 04:34:47;;;;;;;;;;;;;;;;;;;;;
2023/07/15 04:38:33;;;;;;;5.18;3.58;;;18.30;99.90;;;;;;5943380;24;20025;-81
2023/07/15 04:41:58;;;;;;;4.97;2.92;;;18.40;99.90;;;;;;6006988;23;20034;-81
2023/07/15 04:45:37;;;;;;;;;;;;;;;;;;;;;
2023/07/15 04:49:22;;;;;;;;;;;;;;;;;;;;;
2023/07/15 04:59:36;;;;;;;5.60;2.95;;;20.30;99.90;;;;;;6198447;23;20044;-81
2023/07/15 05:15:14;;;;;;;3.17;2.78;;;23.70;99.90;;;;;;5965119;24;20425;-82
2023/07/15 05:51:41;;;;;;;4.22;2.78;;;26.60;78.10;;;;;;6191449;23;20035;-81
2023/07/15 05:54:49;;;;;;;6.07;3.00;;;26.40;76.00;;;;;;6140383;23;20046;-81
2023/07/15 05:58:09;;;;;;;;;;;;;;;;;;;;;
2023/07/15 06:01:41;;;;;;;;;;;;;;;;;;;;;
2023/07/15 06:04:22;;;;;;;4.72;2.70;;;25.50;84.40;;;;;;6060203;23;20484;-78
2023/07/15 06:06:47;;;;;;;3.90;3.03;;;25.00;99.60;;;;;;6183627;23;20013;-78
2023/07/15 06:09:13;;;;;;;5.20;3.08;;;24.60;99.90;;;;;;6180363;23;20450;-78
2023/07/15 06:11:38;;;;;;;4.82;3.13;;;24.20;99.90;;;;;;6181716;23;20020;-77
2023/07/15 06:14:04;;;;;;;6.95;3.28;;;24.00;99.90;;;;;;6177770;23;20014;-77
2023/07/15 06:16:31;;;;;;;6.45;3.00;;;23.80;99.90;;;;;;6151309;23;20345;-78
2023/07/15 06:18:57;;;;;;;5.38;3.15;;;23.60;99.90;;;;;;6150875;23;20014;-78
2023/07/15 06:21:22;;;;;;;6.05;3.17;;;23.30;99.90;;;;;;6151794;23;20032;-78
2023/07/15 06:23:48;;;;;;;5.70;3.45;;;23.20;99.90;;;;;;6125997;23;20014;-78
2023/07/15 06:26:13;;;;;;;4.25;3.17;;;23.00;99.90;;;;;;6153680;23;20065;-79
2023/07/15 06:28:39;;;;;;;7.00;3.20;;;22.80;99.90;;;;;;6154207;23;20097;-78
2023/07/15 06:31:06;;;;;;;6.78;3.05;;;22.70;99.90;;;;;;6152590;23;20014;-78
2023/07/15 06:33:34;;;;;;;5.35;3.50;;;22.70;99.90;;;;;;6152495;23;20010;-78
2023/07/15 06:36:00;;;;;;;6.55;3.45;;;22.70;99.90;;;;;;6152505;23;20010;-78
2023/07/15 06:38:27;;;;;;;4.50;3.00;;;22.60;99.90;;;;;;6152735;23;20042;-78
2023/07/15 06:40:53;;;;;;;5.57;3.13;;;22.60;99.90;;;;;;6152683;23;20063;-78
2023/07/15 06:43:19;;;;;;;7.20;3.10;;;22.50;99.90;;;;;;6152446;23;20041;-78
2023/07/15 06:45:45;;;;;;;4.00;3.30;;;22.60;99.90;;;;;;6152749;23;20346;-78
2023/07/15 06:48:10;;;;;;;7.10;2.97;;;22.60;99.90;;;;;;6153259;23;20013;-78
2023/07/15 06:50:36;;;;;;;4.10;2.65;;;22.60;99.90;;;;;;6153424;23;20011;-78
2023/07/15 06:53:02;;;;;;;4.97;3.00;;;22.70;99.90;;;;;;6152285;23;20036;-78
2023/07/15 06:55:28;;;;;;;6.03;3.03;;;22.80;99.90;;;;;;6152419;23;20014;-78
2023/07/15 06:57:53;;;;;;;5.65;2.85;;;22.90;99.90;;;;;;6152432;23;20017;-78
2023/07/15 07:00:21;;;;;;;5.40;2.95;;;23.00;99.90;;;;;;6151917;23;20502;-78
2023/07/15 07:02:47;;;;;;;4.35;2.85;;;23.10;99.90;;;;;;6152438;23;20018;-78
2023/07/15 07:05:13;;;;;;;5.47;3.20;;;23.20;99.90;;;;;;6152295;23;20093;-77
2023/07/15 07:07:38;;;;;;;5.95;3.05;;;23.20;99.90;;;;;;6152880;23;20014;-78
2023/07/15 07:10:04;;;;;;;4.45;2.90;;;23.20;99.90;;;;;;6128034;23;20013;-78
2023/07/15 07:12:30;;;;;;;5.20;2.95;;;23.10;99.90;;;;;;6152684;23;20050;-78
2023/07/15 07:14:55;;;;;;;5.60;3.15;;;23.20;99.90;;;;;;6152243;23;20010;-78
2023/07/15 07:17:21;;;;;;;5.05;2.80;;;23.20;99.90;;;;;;6155304;23;20021;-79
2023/07/15 07:19:47;;;;;;;6.18;3.15;;;23.20;99.90;;;;;;6156581;23;20092;-78
2023/07/15 07:22:13;;;;;;;5.20;3.38;;;23.20;99.90;;;;;;6153697;23;20015;-79
2023/07/15 07:24:38;;;;;;;5.53;3.17;;;23.20;99.90;;;;;;6156743;23;20057;-79
2023/07/15 07:27:04;;;;;;;4.85;3.60;;;23.20;99.90;;;;;;6152285;23;20377;-78
2023/07/15 07:29:30;;;;;;;9.40;3.38;;;23.20;99.90;;;;;;6128011;23;20089;-78
2023/07/15 07:31:55;;;;;;;5.97;3.50;;;23.20;99.90;;;;;;6128935;23;20385;-78
2023/07/15 07:34:21;;;;;;;5.63;3.20;;;23.20;99.90;;;;;;6153956;23;20006;-79
2023/07/15 07:36:47;;;;;;;4.55;3.55;;;23.20;99.90;;;;;;6152406;23;20016;-79
2023/07/15 07:39:15;;;;;;;6.00;3.40;;;23.30;99.90;;;;;;6152659;23;20014;-78
2023/07/15 07:41:41;;;;;;;6.03;3.38;;;23.40;99.90;;;;;;6128401;23;20032;-78
2023/07/15 07:44:08;;;;;;;3.50;3.10;;;23.70;99.90;;;;;;6152664;23;20498;-79
2023/07/15 07:46:34;;;;;;;4.03;2.90;;;23.80;99.90;;;;;;6154686;23;20029;-79
2023/07/15 07:49:00;;;;;;;4.50;3.38;;;23.80;99.90;;;;;;6154686;23;20025;-79
2023/07/15 07:51:26;;;;;;;4.30;3.25;;;23.90;99.90;;;;;;6154579;23;20010;-78
2023/07/15 07:53:51;;;;;;;4.32;3.42;;;24.00;99.90;;;;;;6153285;23;20013;-78
2023/07/15 07:56:17;;;;;;;3.60;3.30;;;24.10;99.90;;;;;;6152571;23;20077;-80
2023/07/15 07:58:43;;;;;;;4.05;3.22;;;24.30;99.90;;;;;;6153110;23;20065;-79
2023/07/15 08:01:10;;;;;;;4.80;3.65;;;24.50;99.90;;;;;;6158253;23;20010;-79
2023/07/15 08:03:36;;;;;;;4.10;3.15;;;24.90;99.90;;;;;;6156102;23;20018;-79
2023/07/15 08:06:02;;;;;;;5.30;3.30;;;25.20;99.90;;;;;;6155353;23;20066;-80
2023/07/15 08:08:27;;;;;;;3.85;3.08;;;25.80;99.90;;;;;;6131282;23;20390;-80
2023/07/15 08:10:53;;;;;;;3.65;2.80;;;26.30;99.90;;;;;;6155971;23;20064;-80
2023/07/15 08:13:19;;;;;;;4.30;2.80;;;26.50;99.90;;;;;;6155128;23;20491;-78
2023/07/15 08:15:45;;;;;;;5.93;2.90;;;26.60;99.90;;;;;;6154706;23;20143;-80
2023/07/15 08:18:10;;;;;;;4.25;2.50;;;27.10;99.90;;;;;;6157338;23;20045;-80
2023/07/15 08:20:38;;;;;;;3.75;2.95;;;27.70;99.90;;;;;;6155740;23;20013;-81
2023/07/15 08:23:03;;;;;;;4.55;2.92;;;28.20;99.90;;;;;;6130434;23;20096;-80
2023/07/15 08:25:29;;;;;;;4.88;2.92;;;28.30;99.90;;;;;;6130307;23;20465;-80
2023/07/15 08:27:55;;;;;;;4.55;2.67;;;28.60;99.90;;;;;;6155014;23;20021;-80
2023/07/15 08:30:21;;;;;;;4.50;3.13;;;28.50;99.90;;;;;;6156436;23;20013;-80
2023/07/15 08:32:47;;;;;;;4.60;3.00;;;28.40;99.90;;;;;;6132385;23;20009;-80
2023/07/15 08:35:12;;;;;;;5.10;3.10;;;28.60;99.90;;;;;;6134477;23;20269;-80
2023/07/15 08:37:38;;;;;;;4.40;3.13;;;28.60;99.90;;;;;;6158171;23;20064;-80
2023/07/15 08:40:08;;;;;;;4.55;3.63;;;28.30;99.90;;;;;;6159085;23;20013;-80
2023/07/15 08:42:35;;;;;;;5.78;3.38;;;27.70;99.90;;;;;;6159326;23;20462;-80
2023/07/15 08:45:01;;;;;;;5.50;3.50;;;27.20;99.90;;;;;;6157735;23;20037;-80
2023/07/15 08:47:28;;;;;;;5.22;3.50;;;26.90;99.90;;;;;;6157185;23;20092;-79
2023/07/15 08:49:55;;;;;;;5.13;3.30;;;26.70;99.90;;;;;;6133376;23;20010;-80
2023/07/15 08:52:22;;;;;;;3.58;3.15;;;26.50;99.90;;;;;;6133030;23;20009;-79
2023/07/15 08:54:51;;;;;;;3.42;2.97;;;26.40;99.90;;;;;;6156709;23;20010;-79
2023/07/15 08:57:18;;;;;;;4.63;3.10;;;26.10;99.90;;;;;;6132368;23;20021;-79
2023/07/15 08:59:48;;;;;;;3.38;2.90;;;25.90;99.90;;;;;;6155181;23;20036;-78
2023/07/15 09:02:13;;;;;;;5.20;3.10;;;25.70;99.90;;;;;;6155917;23;20017;-77
2023/07/15 09:04:40;;;;;;;4.72;2.97;;;25.60;99.90;;;;;;6156926;23;20040;-78
2023/07/15 09:07:06;;;;;;;5.18;2.95;;;25.50;99.90;;;;;;6156908;23;20237;-78
2023/07/15 09:09:37;;;;;;;4.38;2.70;;;25.50;99.90;;;;;;6157697;23;20010;-78
2023/07/15 09:12:07;;;;;;;4.47;2.70;;;25.90;99.90;;;;;;6132202;23;20013;-79
2023/07/15 09:14:44;;;;;;;4.00;2.60;;;26.80;99.90;;;;;;6133396;23;20338;-79
2023/07/15 09:17:15;;;;;;;4.68;2.65;;;27.60;99.90;;;;;;6133073;23;20060;-79
2023/07/15 09:19:41;;;;;;;3.15;2.70;;;28.30;99.90;;;;;;6158961;23;20057;-78
2023/07/15 09:22:08;;;;;;;4.10;2.40;;;29.00;99.90;;;;;;6134040;23;20048;-78
2023/07/15 09:24:37;;;;;;;3.35;2.25;;;29.30;99.90;;;;;;6135563;23;20009;-78
2023/07/15 09:27:04;;;;;;;4.50;2.67;;;29.50;99.90;;;;;;6130629;23;20028;-80
2023/07/15 09:29:30;;;;;;;4.47;2.60;;;29.20;99.90;;;;;;6153324;23;20010;-79
2023/07/15 09:31:56;;;;;;;3.47;2.80;;;29.00;99.90;;;;;;6153950;23;20089;-79
2023/07/15 09:34:25;;;;;;;3.20;2.30;;;28.80;99.90;;;;;;6154192;23;20014;-78
2023/07/15 09:36:52;;;;;;;3.92;2.47;;;28.90;99.90;;;;;;6128754;23;20009;-79
2023/07/15 09:39:22;;;;;;;4.43;2.90;;;29.20;99.90;;;;;;6129068;23;20088;-79
2023/07/15 09:42:05;;;;;;;3.75;2.72;;;29.40;99.90;;;;;;6156364;23;20018;-79
2023/07/15 09:44:39;;;;;;;3.05;2.30;;;29.00;99.90;;;;;;6155095;23;20036;-79
2023/07/15 09:47:05;;;;;;;3.33;2.10;;;28.70;99.90;;;;;;6130147;23;20092;-78
2023/07/15 09:49:32;;;;;;;3.83;2.13;;;28.50;99.90;;;;;;6153922;23;20084;-79
2023/07/15 09:51:59;;;;;;;1.95;1.60;;;28.70;99.90;;;;;;6131640;23;20006;-80
2023/07/15 09:54:26;;;;;;;3.30;1.90;;;29.00;99.90;;;;;;6154724;23;20410;-80
2023/07/15 09:56:58;;;;;;;2.35;1.60;;;29.20;99.20;;;;;;6154060;23;20385;-82
2023/07/15 09:59:27;;;;;;;3.78;1.50;;;29.40;99.90;;;;;;6129118;23;20025;-81
2023/07/15 10:02:19;;;;;;;1.92;1.20;;;29.60;84.60;;;;;;6129950;23;20013;-79
2023/07/15 10:04:46;;;;;;;3.70;1.20;;;29.50;90.10;;;;;;6134629;23;20388;-79
2023/07/15 10:07:12;;;;;;;3.05;1.50;;;29.30;94.70;;;;;;6155579;23;20014;-79
2023/07/15 10:09:38;;;;;;;5.10;1.30;;;29.30;94.20;;;;;;6131841;23;20021;-79
2023/07/15 10:12:05;;;;;;;1.58;1.10;;;29.40;90.40;;;;;;6156154;23;20013;-79
2023/07/15 10:14:33;;;;;;;3.92;1.30;;;29.20;85.90;;;;;;6155609;23;20013;-79
2023/07/15 10:17:14;;;;;;;2.38;1.20;;;28.70;72.30;;;;;;6156354;23;20020;-79
2023/07/15 10:19:42;;;;;;;1.75;1.40;;;28.50;86.20;;;;;;6156289;23;20453;-79
2023/07/15 10:22:11;;;;;;;2.22;1.33;;;28.70;99.90;;;;;;6155903;23;20013;-79
2023/07/15 10:24:40;;;;;;;3.60;1.40;;;28.90;96.40;;;;;;6131490;23;20342;-79
2023/07/15 10:27:10;;;;;;;2.90;1.20;;;28.80;86.10;;;;;;6155720;23;20469;-79
2023/07/15 10:29:40;;;;;;;3.15;1.60;;;28.50;78.80;;;;;;6131267;23;20052;-79
2023/07/15 10:32:09;;;;;;;1.73;1.20;;;28.30;86.80;;;;;;6156639;23;20041;-79
2023/07/15 10:34:36;;;;;;;2.60;1.33;;;28.40;95.80;;;;;;6156266;23;20450;-79
2023/07/15 10:37:08;;;;;;;4.10;1.50;;;28.30;86.60;;;;;;6157147;23;20064;-80
2023/07/15 10:39:34;;;;;;;1.92;1.25;;;28.10;93.30;;;;;;6132173;23;20009;-79
2023/07/15 10:42:10;;;;;;;2.15;1.40;;;28.00;97.50;;;;;;6130964;23;20541;-79
2023/07/15 10:44:41;;;;;;;4.57;1.60;;;28.20;99.40;;;;;;6155868;23;20020;-79
2023/07/15 10:47:08;;;;;;;2.28;1.23;;;28.20;96.80;;;;;;6156591;23;20497;-79
2023/07/15 10:49:34;;;;;;;1.77;1.05;;;28.20;94.40;;;;;;6131938;23;20013;-79
2023/07/15 10:52:03;;;;;;;2.08;1.17;;;28.00;90.90;;;;;;6156719;23;20020;-79
2023/07/15 10:54:30;;;;;;;3.08;1.13;;;27.80;91.80;;;;;;6155236;23;20009;-79
2023/07/15 10:56:57;;;;;;;2.60;1.38;;;27.80;94.50;;;;;;6155476;23;20029;-79
2023/07/15 10:59:36;;;;;;;1.55;1.08;;;27.50;92.30;;;;;;6155950;23;20040;-79
2023/07/15 11:02:03;;;;;;;2.72;1.50;;;27.20;94.70;;;;;;6155833;23;20450;-78
2023/07/15 11:04:28;;;;;;;1.80;1.15;;;26.80;98.60;;;;;;6156415;23;20084;-78
2023/07/15 11:07:02;;;;;;;2.20;1.27;;;26.60;99.90;;;;;;6131534;23;20017;-78
2023/07/15 11:09:28;;;;;;;2.25;1.60;;;26.40;99.90;;;;;;6131494;23;20021;-78
2023/07/15 11:11:54;;;;;;;3.75;1.60;;;26.70;99.90;;;;;;6157322;23;20033;-78
2023/07/15 11:14:27;;;;;;;3.17;1.40;;;27.20;99.90;;;;;;6156604;23;20447;-78
2023/07/15 11:16:58;;;;;;;2.78;1.50;;;27.60;99.90;;;;;;6131009;23;20009;-79
2023/07/15 11:19:28;;;;;;;3.63;1.60;;;27.60;99.40;;;;;;6131276;23;20213;-78
2023/07/15 11:21:59;;;;;;;2.75;1.67;;;27.40;99.60;;;;;;6130063;23;20022;-79
2023/07/15 11:24:26;;;;;;;4.07;1.80;;;27.10;99.90;;;;;;6154107;23;20014;-78
2023/07/15 11:26:52;;;;;;;4.18;1.60;;;27.00;99.90;;;;;;6154276;23;20036;-79
2023/07/15 11:29:24;;;;;;;3.42;1.60;;;26.90;99.90;;;;;;6154243;23;20013;-78
2023/07/15 11:31:52;;;;;;;3.42;1.90;;;26.70;99.90;;;;;;6130533;23;20015;-79
2023/07/15 11:34:25;;;;;;;2.30;1.70;;;26.40;99.90;;;;;;6154628;23;20049;-78
2023/07/15 11:36:51;;;;;;;;;;;26.30;99.90;;;;;;6154998;23;20045;-79
2023/07/15 11:39:18;;;;;;;3.40;1.80;;;25.90;99.90;;;;;;6155371;23;19912;-78
2023/07/15 11:41:44;;;;;;;2.88;1.60;;;25.80;99.90;;;;;;6154891;23;20132;-78
2023/07/15 11:44:13;;;;;;;3.15;1.60;;;25.70;99.90;;;;;;6154875;23;20013;-79
2023/07/15 11:46:45;;;;;;;3.92;1.90;;;25.60;99.90;;;;;;6154093;23;20010;-78
2023/07/15 11:49:11;;;;;;;;;;;25.50;99.90;;;;;;6155036;23;20020;-78
2023/07/15 11:51:41;;;;;;;2.72;1.63;;;25.50;99.90;;;;;;6156625;23;20328;-79
2023/07/15 11:54:11;;;;;;;4.00;1.80;;;25.70;99.90;;;;;;6156661;23;20025;-79
2023/07/15 11:56:42;;;;;;;4.70;2.20;;;26.10;99.90;;;;;;6132360;23;20442;-78
2023/07/15 11:59:10;;;;;;;3.67;1.90;;;26.60;99.90;;;;;;6157047;23;20021;-78
2023/07/15 12:01:38;;;;;;;3.45;1.90;;;26.90;99.90;;;;;;6158930;23;20631;-78
2023/07/15 12:15:23;;;;;;;;;;;;;;;;;;;;;
2023/07/15 13:35:51;;;;;;;4.55;1.70;;;30.10;61.70;;;;;;6172523;23;20083;-83
2023/07/15 13:38:45;;;;;;;2.30;1.50;;;30.10;63.00;;;;;;6087254;23;20044;-82
2023/07/15 13:41:47;;;;;;;3.38;1.42;;;30.10;62.10;;;;;;6020863;23;20057;-80
2023/07/15 13:45:02;;;;;;;2.90;1.93;;;30.20;61.00;;;;;;5993578;23;20016;-79
2023/07/15 13:51:40;;;;;;;3.40;1.65;;;30.20;60.60;;;;;;6001886;23;20027;-80
2023/07/15 13:54:40;;;;;;;2.55;1.70;;;30.40;61.70;;;;;;5992515;23;20023;-81
2023/07/15 14:01:07;;;;;;;4.50;1.77;;;30.60;60.30;;;;;;6134462;23;20021;-80
2023/07/15 14:11:56;;;;;;;;;;;;;;;;;;;;;
2023/07/15 14:27:13;;;;;;;;;;;;;;;;;;;;;
2023/07/15 14:30:11;;;;;;;;;;;;;;;;;;;;;
2023/07/15 14:32:57;;;;;;;;;;;;;;;;;;;;;
2023/07/15 14:35:35;;;;;;;2.92;1.73;;;30.10;58.20;;;;;;6084930;23;20093;-80
2023/07/15 14:38:24;;;;;;;2.72;1.75;;;30.00;58.00;;;;;;6134202;23;20076;-80
2023/07/15 14:40:59;;;;;;;3.72;1.70;;;30.20;59.50;;;;;;6127998;23;20044;-78
2023/07/15 14:43:28;;;;;;;3.40;1.90;;;30.20;60.40;;;;;;6129091;23;20401;-80
2023/07/15 14:46:21;;;;;;;5.15;1.85;;;30.20;58.30;;;;;;6130563;23;20021;-80
2023/07/15 14:49:54;;;;;;;3.05;1.85;;;30.00;60.10;;;;;;6147318;23;20430;-78
2023/07/15 14:52:18;;;;;;;2.95;1.77;;;29.80;59.50;;;;;;6159778;23;20609;-79
2023/07/15 14:55:01;;;;;;;3.90;2.15;;;29.70;60.90;;;;;;6132885;23;20041;-80
2023/07/15 14:57:39;;;;;;;3.10;2.22;;;29.50;61.70;;;;;;6156721;23;20017;-79
2023/07/15 15:00:12;;;;;;;4.43;2.10;;;29.60;61.00;;;;;;6132086;23;20052;-80
2023/07/15 15:02:58;;;;;;;4.00;2.25;;;29.50;60.70;;;;;;6139394;23;20017;-81
2023/07/15 15:05:33;;;;;;;3.05;2.10;;;29.50;61.30;;;;;;6117516;23;20017;-81
2023/07/15 15:08:12;;;;;;;2.83;1.92;;;29.10;61.10;;;;;;6131299;23;20253;-79
2023/07/15 15:10:58;;;;;;;2.95;2.13;;;28.80;60.90;;;;;;6113956;23;20089;-80
2023/07/15 15:13:24;;;;;;;2.67;2.03;;;28.60;60.50;;;;;;6136347;23;20014;-80
2023/07/15 15:15:53;;;;;;;4.30;2.10;;;28.30;61.10;;;;;;6107826;23;20013;-80
2023/07/15 15:18:26;;;;;;;3.30;2.05;;;28.00;61.60;;;;;;6153324;23;20044;-81
2023/07/15 15:20:58;;;;;;;2.35;2.05;;;27.80;62.40;;;;;;6137666;23;20017;-80
2023/07/15 15:24:04;;;;;;;3.73;2.00;;;27.70;64.30;;;;;;6134064;23;20117;-80
2023/07/15 15:27:15;;;;;;;4.65;2.35;;;27.60;66.10;;;;;;6093865;23;20018;-81
2023/07/15 15:29:53;;;;;;;3.65;2.10;;;27.50;66.50;;;;;;6040298;23;20023;-82
2023/07/15 15:32:44;;;;;;;5.22;2.03;;;27.40;66.30;;;;;;6048566;23;20129;-80
2023/07/15 15:38:40;;;;;;;;;;;;;;;;;;;;;
2023/07/15 15:44:16;;;;;;;3.50;2.20;;;26.80;75.60;;;;;;6033757;23;20084;-79
2023/07/15 15:46:58;;;;;;;3.78;2.20;;;26.70;75.90;;;;;;6120766;23;20045;-80
2023/07/15 15:50:01;;;;;;;3.25;2.35;;;26.50;74.30;;;;;;6139817;23;20013;-79
2023/07/15 15:52:48;;;;;;;2.80;2.10;;;26.40;74.00;;;;;;6152473;23;20060;-82
2023/07/15 15:55:21;;;;;;;2.97;2.30;;;26.20;75.90;;;;;;6153693;23;20339;-79
2023/07/15 15:58:17;;;;;;;2.55;2.30;;;26.10;81.70;;;;;;6054047;23;20022;-80
2023/07/15 16:01:01;;;;;;;3.13;2.47;;;26.00;93.70;;;;;;6128821;23;20013;-79
2023/07/15 16:03:58;;;;;;;4.13;2.17;;;26.00;95.20;;;;;;6154608;23;20022;-79
2023/07/15 16:06:45;;;;;;;2.63;2.10;;;26.00;96.50;;;;;;6131664;23;20017;-79
2023/07/15 16:09:43;;;;;;;3.75;2.40;;;26.00;99.30;;;;;;6129738;23;20040;-79
2023/07/15 16:12:32;;;;;;;3.13;2.40;;;26.00;99.30;;;;;;6131098;23;20017;-79
2023/07/15 16:15:15;;;;;;;4.30;2.65;;;26.00;99.90;;;;;;6131142;23;20028;-79
2023/07/15 16:17:55;;;;;;;4.30;2.28;;;25.90;99.90;;;;;;6153343;23;20130;-79
2023/07/15 16:24:41;;;;;;;4.20;2.65;;;25.80;99.90;;;;;;6084919;23;20025;-79
2023/07/15 16:28:02;;;;;;;4.13;2.30;;;25.70;99.90;;;;;;6120049;23;20013;-79
2023/07/15 16:31:27;;;;;;;;;;;;;;;;;;;;;
2023/07/15 16:35:20;;;;;;;;;;;;;;;;;;;;;
2023/07/15 16:38:18;;;;;;;10.75;3.13;;;24.40;99.90;;;;;;6076732;23;20390;-78
2023/07/15 16:40:44;;;;;;;14.43;4.38;;;23.30;99.90;;;;;;6138543;23;20025;-78
2023/07/15 16:43:12;;;;;;;8.50;3.42;;;22.60;99.90;;;;;;6135657;23;20024;-80
2023/07/15 16:45:41;;;;;;;6.35;3.15;;;21.90;99.90;;;;;;6133181;23;20383;-79
2023/07/15 16:48:10;;;;;;;10.27;4.05;;;21.40;99.90;;;;;;6131191;23;20017;-78
2023/07/15 16:50:53;;;;;;;10.55;3.95;;;21.10;99.90;;;;;;6131553;23;20033;-78
2023/07/15 16:53:21;;;;;;;20.27;4.95;;;20.90;99.90;;;;;;6130736;23;20044;-79
2023/07/15 16:56:02;;;;;;;12.35;4.05;;;20.70;99.90;;;;;;6130606;23;20027;-77
2023/07/15 16:58:34;;;;;;;8.45;4.10;;;20.50;99.90;;;;;;6130849;23;20466;-78
2023/07/15 17:01:03;;;;;;;9.98;4.50;;;20.40;99.90;;;;;;6130427;23;20044;-79
2023/07/15 17:03:32;;;;;;;9.55;4.43;;;20.30;99.90;;;;;;6130013;23;20052;-79
2023/07/15 17:05:58;;;;;;;9.13;4.63;;;20.20;99.90;;;;;;6129641;23;20018;-78
2023/07/15 17:08:29;;;;;;;10.50;4.55;;;20.10;99.90;;;;;;6130133;23;20029;-78
2023/07/15 17:10:57;;;;;;;8.88;4.32;;;20.10;99.90;;;;;;6129562;23;20013;-79
2023/07/15 17:13:26;;;;;;;8.23;4.45;;;20.00;99.90;;;;;;6130141;23;20083;-78
2023/07/15 17:15:58;;;;;;;7.13;3.88;;;19.90;99.90;;;;;;6129035;23;20346;-78
2023/07/15 17:18:31;;;;;;;8.70;3.80;;;19.90;99.90;;;;;;6155146;23;20017;-79
2023/07/15 17:21:15;;;;;;;;;;;19.80;99.90;;;;;;6155572;23;20017;-78
2023/07/15 17:23:56;;;;;;;8.05;3.25;;;19.70;99.90;;;;;;6130898;23;19920;-78
2023/07/15 17:26:48;;;;;;;22.95;6.38;;;19.60;99.90;;;;;;6096377;23;20037;-79
2023/07/15 17:29:19;;;;;;;7.25;3.83;;;19.60;99.90;;;;;;6130768;23;20068;-78
2023/07/15 17:31:53;;;;;;;9.10;3.95;;;19.60;99.90;;;;;;6130562;23;20092;-78
2023/07/15 17:34:27;;;;;;;7.78;3.53;;;19.60;99.90;;;;;;6130941;23;20010;-78
2023/07/15 17:36:58;;;;;;;6.85;3.40;;;19.50;99.90;;;;;;6130464;23;20015;-79
2023/07/15 17:39:25;;;;;;;5.25;3.25;;;19.50;99.90;;;;;;6130641;23;20053;-78
2023/07/15 17:41:54;;;;;;;6.88;3.28;;;19.50;99.90;;;;;;6131418;23;20300;-77
2023/07/15 17:44:25;;;;;;;7.93;4.15;;;19.50;99.90;;;;;;6157184;23;20468;-79
2023/07/15 17:46:59;;;;;;;5.78;2.83;;;19.50;99.90;;;;;;6130103;23;20024;-79
2023/07/15 17:49:32;;;;;;;6.25;3.30;;;19.50;99.90;;;;;;6129359;23;20025;-79
2023/07/15 17:52:12;;;;;;;4.78;3.08;;;19.50;99.90;;;;;;6133502;23;20037;-78
2023/07/15 17:54:41;;;;;;;6.05;3.15;;;19.50;99.90;;;;;;6132762;23;20013;-78
2023/07/15 17:57:27;;;;;;;4.70;2.78;;;19.50;99.90;;;;;;6134921;23;20119;-79
2023/07/15 18:00:08;;;;;;;4.68;2.90;;;19.50;99.90;;;;;;6131920;23;20430;-79
2023/07/15 18:02:49;;;;;;;;;;;19.50;99.90;;;;;;6114614;23;20009;-79
2023/07/15 18:05:20;;;;;;;5.00;3.08;;;19.50;99.90;;;;;;6130246;23;20325;-79
2023/07/15 18:07:51;;;;;;;8.07;3.00;;;19.60;99.90;;;;;;6128701;23;20017;-79
2023/07/15 18:10:29;;;;;;;6.32;3.35;;;19.60;99.90;;;;;;6130011;23;20013;-79
2023/07/15 18:13:59;;;;;;;6.60;3.10;;;19.70;99.90;;;;;;6128371;23;20013;-78
2023/07/15 18:16:59;;;;;;;3.72;2.42;;;19.70;99.90;;;;;;6150992;23;20041;-79
2023/07/15 18:20:16;;;;;;;;;;;;;;;;;;;;;
2023/07/15 18:23:57;;;;;;;;;;;;;;;;;;;;;
2023/07/15 18:26:14;;;;;;;3.15;2.03;;;20.10;99.90;;;;;;6132495;23;20020;-78
2023/07/15 18:33:05;;;;;;;5.05;1.95;;;20.30;99.90;;;;;;6076182;23;20026;-79
2023/07/15 18:39:35;;;;;;;4.32;2.10;;;20.30;99.90;;;;;;6118127;23;20014;-79
2023/07/15 18:42:51;;;;;;;4.32;2.30;;;20.20;99.90;;;;;;5988517;23;20015;-79
2023/07/15 18:46:18;;;;;;;5.28;2.42;;;20.10;99.90;;;;;;6134159;23;20013;-79
2023/07/15 18:49:36;;;;;;;6.53;2.63;;;20.00;99.90;;;;;;6113619;23;20014;-80
2023/07/15 18:59:49;;;;;;;4.95;2.30;;;19.80;99.90;;;;;;6004581;23;20024;-80
2023/07/15 19:11:03;;;;;;;4.03;1.88;;;19.30;99.90;;;;;;5952536;24;20028;-80
2023/07/15 19:13:58;;;;;;;5.47;2.22;;;19.20;99.90;;;;;;5938506;23;20477;-79
2023/07/15 19:17:18;;;;;;;5.57;2.20;;;19.00;99.90;;;;;;6199940;23;20513;-79
2023/07/15 19:20:35;;;;;;;;;;;;;;;;;;;;;
2023/07/15 19:23:49;;;;;;;4.28;2.53;;;18.80;99.90;;;;;;6183124;23;20036;-79
2023/07/15 19:26:52;;;;;;;5.57;2.55;;;18.80;99.90;;;;;;6131142;23;20092;-79
2023/07/15 19:29:27;;;;;;;4.93;2.42;;;18.70;99.90;;;;;;6134275;23;20017;-86
2023/07/15 19:31:53;;;;;;;4.28;2.13;;;18.70;99.90;;;;;;6157875;23;20021;-87
2023/07/15 19:34:18;;;;;;;4.40;2.38;;;18.70;99.90;;;;;;6182684;23;20068;-86
2023/07/15 19:36:44;;;;;;;5.10;2.38;;;18.60;99.90;;;;;;6182352;23;20019;-86
2023/07/15 19:39:09;;;;;;;5.25;2.65;;;18.60;99.90;;;;;;6152461;23;20009;-86
2023/07/15 19:41:35;;;;;;;6.03;2.40;;;18.60;99.90;;;;;;6152831;23;20108;-87
2023/07/15 19:44:01;;;;;;;6.50;2.42;;;18.60;99.90;;;;;;6152755;23;20517;-87
2023/07/15 19:46:27;;;;;;;6.60;2.80;;;18.60;99.90;;;;;;6128031;23;20100;-87
2023/07/15 19:48:52;;;;;;;5.93;2.50;;;18.50;99.90;;;;;;6128169;23;20025;-86
2023/07/15 19:51:18;;;;;;;4.00;2.03;;;18.50;99.90;;;;;;6152784;23;20421;-86
2023/07/15 19:53:43;;;;;;;6.88;2.58;;;18.50;99.90;;;;;;6152518;23;20009;-87
2023/07/15 19:56:09;;;;;;;4.32;2.60;;;18.40;99.90;;;;;;6128077;23;20041;-87
2023/07/15 19:58:35;;;;;;;4.90;2.33;;;18.40;99.90;;;;;;6152727;23;20013;-87
2023/07/15 20:01:00;;;;;;;5.97;3.03;;;18.30;99.90;;;;;;6152217;23;20140;-87
2023/07/15 20:03:26;;;;;;;6.43;2.75;;;18.30;99.90;;;;;;6152602;23;20014;-86
2023/07/15 20:05:51;;;;;;;3.70;2.10;;;18.40;99.90;;;;;;6127980;23;20017;-88
2023/07/15 20:08:17;;;;;;;4.22;2.15;;;18.20;99.90;;;;;;6127955;23;20009;-87
2023/07/15 20:10:42;;;;;;;5.97;2.42;;;18.20;99.90;;;;;;6152566;23;20017;-86
2023/07/15 20:13:08;;;;;;;5.05;2.72;;;18.20;99.90;;;;;;6129623;23;20443;-87